sensor_id;sensor_type;location;lat;lon;timestamp;P1;durP1;ratioP1;P2;durP2;ratioP2
7203;SDS011;3643;52.460;13.322;2022-11-20T04:50:40;25.40;;;12.80;;
7203;SDS011;3643;52.460;13.322;2022-11-20T04:53:09;27.47;;;14.17;;
7203;SDS011;3643;52.460;13.322;2022-11-20T04:55:38;21.77;;;13.03;;
7203;SDS011;3643;52.460;13.322;2022-11-20T04:58:07;29.10;;;14.10;;
7203;SDS011;3643;52.460;13.322;2022-11-20T05:00:37;36.43;;;16.63;;
7203;SDS011;3643;52.460;13.322;2022-11-20T05:03:06;27.97;;;14.77;;
7203;SDS011;3643;52.460;13.322;2022-11-20T05:05:35;25.30;;;14.00;;
7203;SDS011;3643;52.460;13.322;2022-11-20T05:08:11;30.03;;;15.50;;
7203;SDS011;3643;52.460;13.322;2022-11-20T05:10:40;26.70;;;14.73;;
7203;SDS011;3643;52.460;13.322;2022-11-20T05:13:08;30.50;;;14.90;;
7203;SDS011;3643;52.460;13.322;2022-11-20T05:15:37;31.00;;;16.10;;
7203;SDS011;3643;52.460;13.322;2022-11-20T05:18:05;31.80;;;16.47;;
7203;SDS011;3643;52.460;13.322;2022-11-20T05:20:34;27.43;;;14.10;;
7203;SDS011;3643;52.460;13.322;2022-11-20T05:23:05;29.53;;;15.20;;
7203;SDS011;3643;52.460;13.322;2022-11-20T05:25:35;28.13;;;15.57;;
7203;SDS011;3643;52.460;13.322;2022-11-20T05:28:03;30.50;;;14.27;;
7203;SDS011;3643;52.460;13.322;2022-11-20T05:30:32;27.83;;;14.03;;
7203;SDS011;3643;52.460;13.322;2022-11-20T05:33:00;34.73;;;15.53;;
7203;SDS011;3643;52.460;13.322;2022-11-20T05:35:28;34.03;;;16.93;;
7203;SDS011;3643;52.460;13.322;2022-11-20T05:37:57;32.63;;;15.73;;
7203;SDS011;3643;52.460;13.322;2022-11-20T05:40:25;32.23;;;16.33;;
7203;SDS011;3643;52.460;13.322;2022-11-20T05:42:55;32.50;;;16.80;;
7203;SDS011;3643;52.460;13.322;2022-11-20T05:45:23;36.60;;;16.37;;
7203;SDS011;3643;52.460;13.322;2022-11-20T05:47:53;34.90;;;16.93;;
7203;SDS011;3643;52.460;13.322;2022-11-20T05:50:25;37.77;;;16.50;;
7203;SDS011;3643;52.460;13.322;2022-11-20T05:52:54;35.33;;;17.03;;
7203;SDS011;3643;52.460;13.322;2022-11-20T05:55:25;28.17;;;14.90;;
7203;SDS011;3643;52.460;13.322;2022-11-20T05:57:56;36.27;;;17.53;;
7203;SDS011;3643;52.460;13.322;2022-11-20T06:00:25;33.47;;;15.97;;
7203;SDS011;3643;52.460;13.322;2022-11-20T06:02:53;31.17;;;16.77;;
7203;SDS011;3643;52.460;13.322;2022-11-20T06:05:22;36.17;;;17.30;;
7203;SDS011;3643;52.460;13.322;2022-11-20T06:07:50;31.93;;;16.27;;
7203;SDS011;3643;52.460;13.322;2022-11-20T06:10:18;34.77;;;16.43;;
7203;SDS011;3643;52.460;13.322;2022-11-20T06:12:47;59.23;;;27.87;;
7203;SDS011;3643;52.460;13.322;2022-11-20T06:15:16;36.53;;;17.40;;
7203;SDS011;3643;52.460;13.322;2022-11-20T06:17:46;33.23;;;17.20;;
7203;SDS011;3643;52.460;13.322;2022-11-20T06:20:14;32.13;;;17.27;;
7203;SDS011;3643;52.460;13.322;2022-11-20T06:22:43;33.20;;;17.00;;
7203;SDS011;3643;52.460;13.322;2022-11-20T06:25:11;36.60;;;17.40;;
7203;SDS011;3643;52.460;13.322;2022-11-20T06:27:39;40.23;;;17.90;;
7203;SDS011;3643;52.460;13.322;2022-11-20T06:30:08;36.97;;;17.17;;
7203;SDS011;3643;52.460;13.322;2022-11-20T06:32:39;33.53;;;17.50;;
7203;SDS011;3643;52.460;13.322;2022-11-20T06:35:08;26.93;;;15.80;;
7203;SDS011;3643;52.460;13.322;2022-11-20T06:37:36;38.50;;;19.53;;
7203;SDS011;3643;52.460;13.322;2022-11-20T06:40:05;42.40;;;19.13;;
7203;SDS011;3643;52.460;13.322;2022-11-20T06:42:35;35.03;;;18.07;;
7203;SDS011;3643;52.460;13.322;2022-11-20T06:45:03;36.50;;;18.53;;
7203;SDS011;3643;52.460;13.322;2022-11-20T06:47:33;35.27;;;17.87;;
7203;SDS011;3643;52.460;13.322;2022-11-20T06:50:03;36.37;;;17.30;;
7203;SDS011;3643;52.460;13.322;2022-11-20T06:52:32;38.83;;;18.80;;
7203;SDS011;3643;52.460;13.322;2022-11-20T06:55:08;34.83;;;16.73;;
7203;SDS011;3643;52.460;13.322;2022-11-20T06:57:37;39.33;;;18.30;;
7203;SDS011;3643;52.460;13.322;2022-11-20T07:00:05;36.10;;;18.90;;
7203;SDS011;3643;52.460;13.322;2022-11-20T07:02:35;39.27;;;17.53;;
7203;SDS011;3643;52.460;13.322;2022-11-20T07:05:05;40.07;;;18.63;;
7203;SDS011;3643;52.460;13.322;2022-11-20T07:07:34;36.47;;;17.13;;
7203;SDS011;3643;52.460;13.322;2022-11-20T07:10:03;40.07;;;18.60;;
7203;SDS011;3643;52.460;13.322;2022-11-20T07:12:33;38.47;;;17.90;;
7203;SDS011;3643;52.460;13.322;2022-11-20T07:15:02;37.97;;;18.50;;
7203;SDS011;3643;52.460;13.322;2022-11-20T07:17:31;36.00;;;17.47;;
7203;SDS011;3643;52.460;13.322;2022-11-20T07:19:59;39.37;;;18.03;;
7203;SDS011;3643;52.460;13.322;2022-11-20T07:22:29;42.43;;;19.13;;
7203;SDS011;3643;52.460;13.322;2022-11-20T07:24:58;29.30;;;16.90;;
7203;SDS011;3643;52.460;13.322;2022-11-20T07:27:28;31.50;;;15.77;;
7203;SDS011;3643;52.460;13.322;2022-11-20T07:29:57;29.90;;;15.53;;
7203;SDS011;3643;52.460;13.322;2022-11-20T07:32:25;36.27;;;17.33;;
7203;SDS011;3643;52.460;13.322;2022-11-20T07:34:54;29.90;;;15.63;;
7203;SDS011;3643;52.460;13.322;2022-11-20T07:37:25;33.23;;;16.97;;
7203;SDS011;3643;52.460;13.322;2022-11-20T07:39:55;35.33;;;17.03;;
7203;SDS011;3643;52.460;13.322;2022-11-20T07:42:25;30.00;;;16.33;;
7203;SDS011;3643;52.460;13.322;2022-11-20T07:44:53;32.70;;;16.37;;
7203;SDS011;3643;52.460;13.322;2022-11-20T07:47:22;32.20;;;16.30;;
7203;SDS011;3643;52.460;13.322;2022-11-20T07:49:51;26.83;;;15.67;;
7203;SDS011;3643;52.460;13.322;2022-11-20T07:52:20;28.27;;;14.43;;
7203;SDS011;3643;52.460;13.322;2022-11-20T07:54:48;33.67;;;15.17;;
7203;SDS011;3643;52.460;13.322;2022-11-20T07:57:18;26.63;;;15.47;;
7203;SDS011;3643;52.460;13.322;2022-11-20T07:59:53;29.67;;;16.40;;
7203;SDS011;3643;52.460;13.322;2022-11-20T08:02:22;34.13;;;16.30;;
7203;SDS011;3643;52.460;13.322;2022-11-20T08:04:50;30.00;;;15.60;;
7203;SDS011;3643;52.460;13.322;2022-11-20T08:07:19;23.93;;;14.87;;
7203;SDS011;3643;52.460;13.322;2022-11-20T08:09:48;31.33;;;16.43;;
7203;SDS011;3643;52.460;13.322;2022-11-20T08:12:19;28.97;;;15.57;;
7203;SDS011;3643;52.460;13.322;2022-11-20T08:15:06;31.03;;;15.97;;
7203;SDS011;3643;52.460;13.322;2022-11-20T08:17:38;24.87;;;14.43;;
7203;SDS011;3643;52.460;13.322;2022-11-20T08:20:07;30.40;;;16.07;;
7203;SDS011;3643;52.460;13.322;2022-11-20T08:22:36;27.40;;;15.83;;
7203;SDS011;3643;52.460;13.322;2022-11-20T08:25:05;28.00;;;15.73;;
7203;SDS011;3643;52.460;13.322;2022-11-20T08:27:35;28.13;;;15.90;;
7203;SDS011;3643;52.460;13.322;2022-11-20T08:30:04;28.70;;;16.40;;
7203;SDS011;3643;52.460;13.322;2022-11-20T08:32:34;26.97;;;15.30;;
7203;SDS011;3643;52.460;13.322;2022-11-20T08:35:04;31.53;;;16.17;;
7203;SDS011;3643;52.460;13.322;2022-11-20T08:37:32;27.27;;;13.83;;
7203;SDS011;3643;52.460;13.322;2022-11-20T08:40:01;28.37;;;15.20;;
7203;SDS011;3643;52.460;13.322;2022-11-20T08:42:30;24.70;;;14.33;;
7203;SDS011;3643;52.460;13.322;2022-11-20T08:44:59;22.03;;;12.23;;
7203;SDS011;3643;52.460;13.322;2022-11-20T08:47:28;27.70;;;15.00;;
7203;SDS011;3643;52.460;13.322;2022-11-20T08:49:57;28.57;;;15.13;;
7203;SDS011;3643;52.460;13.322;2022-11-20T08:52:26;28.30;;;15.03;;
7203;SDS011;3643;52.460;13.322;2022-11-20T08:54:54;24.53;;;13.63;;
7203;SDS011;3643;52.460;13.322;2022-11-20T08:57:23;25.50;;;14.73;;
7203;SDS011;3643;52.460;13.322;2022-11-20T08:59:51;23.53;;;13.40;;
7203;SDS011;3643;52.460;13.322;2022-11-20T09:02:37;30.90;;;16.77;;
7203;SDS011;3643;52.460;13.322;2022-11-20T09:05:06;25.30;;;13.33;;
7203;SDS011;3643;52.460;13.322;2022-11-20T09:07:35;23.93;;;13.33;;
7203;SDS011;3643;52.460;13.322;2022-11-20T09:10:03;24.97;;;13.50;;
7203;SDS011;3643;52.460;13.322;2022-11-20T09:12:50;24.63;;;13.43;;
7203;SDS011;3643;52.460;13.322;2022-11-20T09:15:20;24.33;;;14.33;;
7203;SDS011;3643;52.460;13.322;2022-11-20T09:17:53;69.57;;;34.57;;
7203;SDS011;3643;52.460;13.322;2022-11-20T09:20:21;24.33;;;13.40;;
7203;SDS011;3643;52.460;13.322;2022-11-20T09:22:50;22.00;;;12.90;;
7203;SDS011;3643;52.460;13.322;2022-11-20T09:25:18;20.63;;;12.73;;
7203;SDS011;3643;52.460;13.322;2022-11-20T09:27:56;21.80;;;13.47;;
7203;SDS011;3643;52.460;13.322;2022-11-20T09:30:25;24.23;;;12.80;;
7203;SDS011;3643;52.460;13.322;2022-11-20T09:32:55;20.70;;;12.47;;
7203;SDS011;3643;52.460;13.322;2022-11-20T09:35:24;21.10;;;12.93;;
7203;SDS011;3643;52.460;13.322;2022-11-20T09:37:53;19.63;;;12.40;;
7203;SDS011;3643;52.460;13.322;2022-11-20T09:40:22;21.00;;;13.20;;
7203;SDS011;3643;52.460;13.322;2022-11-20T09:42:54;20.17;;;12.43;;
7203;SDS011;3643;52.460;13.322;2022-11-20T09:45:30;23.67;;;12.93;;
7203;SDS011;3643;52.460;13.322;2022-11-20T09:51:25;23.63;;;13.07;;
7203;SDS011;3643;52.460;13.322;2022-11-20T09:54:05;22.57;;;13.73;;
7203;SDS011;3643;52.460;13.322;2022-11-20T09:56:42;24.83;;;13.33;;
7203;SDS011;3643;52.460;13.322;2022-11-20T09:59:20;22.70;;;14.03;;
7203;SDS011;3643;52.460;13.322;2022-11-20T10:02:08;22.93;;;13.10;;
7203;SDS011;3643;52.460;13.322;2022-11-20T10:04:47;20.97;;;12.30;;
7203;SDS011;3643;52.460;13.322;2022-11-20T10:07:21;25.27;;;12.53;;
7203;SDS011;3643;52.460;13.322;2022-11-20T10:09:58;24.03;;;13.57;;
7203;SDS011;3643;52.460;13.322;2022-11-20T10:12:31;20.20;;;13.33;;
7203;SDS011;3643;52.460;13.322;2022-11-20T10:15:12;17.63;;;11.30;;
7203;SDS011;3643;52.460;13.322;2022-11-20T10:18:00;20.13;;;11.83;;
7203;SDS011;3643;52.460;13.322;2022-11-20T10:20:42;26.27;;;14.40;;
7203;SDS011;3643;52.460;13.322;2022-11-20T10:26:21;20.30;;;12.63;;
7203;SDS011;3643;52.460;13.322;2022-11-20T10:28:58;22.40;;;13.13;;
7203;SDS011;3643;52.460;13.322;2022-11-20T10:31:36;21.90;;;12.33;;
7203;SDS011;3643;52.460;13.322;2022-11-20T10:34:08;26.10;;;13.97;;
7203;SDS011;3643;52.460;13.322;2022-11-20T10:36:52;21.60;;;13.03;;
7203;SDS011;3643;52.460;13.322;2022-11-20T10:39:26;17.57;;;11.77;;
7203;SDS011;3643;52.460;13.322;2022-11-20T10:42:02;21.93;;;13.17;;
7203;SDS011;3643;52.460;13.322;2022-11-20T10:44:36;19.27;;;12.33;;
7203;SDS011;3643;52.460;13.322;2022-11-20T10:47:31;22.33;;;12.50;;
7203;SDS011;3643;52.460;13.322;2022-11-20T10:50:01;18.87;;;11.00;;
7203;SDS011;3643;52.460;13.322;2022-11-20T10:52:35;18.77;;;11.60;;
7203;SDS011;3643;52.460;13.322;2022-11-20T10:55:17;18.53;;;11.10;;
7203;SDS011;3643;52.460;13.322;2022-11-20T10:57:57;19.60;;;12.57;;
7203;SDS011;3643;52.460;13.322;2022-11-20T11:00:30;17.37;;;10.77;;
7203;SDS011;3643;52.460;13.322;2022-11-20T11:02:59;21.20;;;12.50;;
7203;SDS011;3643;52.460;13.322;2022-11-20T11:05:33;17.67;;;11.43;;
7203;SDS011;3643;52.460;13.322;2022-11-20T11:08:10;18.57;;;12.37;;
7203;SDS011;3643;52.460;13.322;2022-11-20T11:10:43;18.70;;;12.13;;
7203;SDS011;3643;52.460;13.322;2022-11-20T11:13:21;17.63;;;11.47;;
7203;SDS011;3643;52.460;13.322;2022-11-20T11:15:51;20.80;;;12.80;;
7203;SDS011;3643;52.460;13.322;2022-11-20T11:18:23;21.33;;;12.63;;
7203;SDS011;3643;52.460;13.322;2022-11-20T11:20:54;20.63;;;12.80;;
7203;SDS011;3643;52.460;13.322;2022-11-20T11:23:36;23.80;;;12.90;;
7203;SDS011;3643;52.460;13.322;2022-11-20T11:26:07;20.80;;;11.53;;
7203;SDS011;3643;52.460;13.322;2022-11-20T11:28:52;19.70;;;13.47;;
7203;SDS011;3643;52.460;13.322;2022-11-20T11:31:23;20.57;;;12.37;;
7203;SDS011;3643;52.460;13.322;2022-11-20T11:34:03;19.33;;;12.50;;
7203;SDS011;3643;52.460;13.322;2022-11-20T11:36:33;20.93;;;12.17;;
7203;SDS011;3643;52.460;13.322;2022-11-20T11:39:05;19.13;;;12.43;;
7203;SDS011;3643;52.460;13.322;2022-11-20T11:41:38;19.80;;;11.73;;
7203;SDS011;3643;52.460;13.322;2022-11-20T11:44:14;18.83;;;11.27;;
7203;SDS011;3643;52.460;13.322;2022-11-20T11:47:02;19.83;;;11.77;;
7203;SDS011;3643;52.460;13.322;2022-11-20T11:49:33;18.00;;;12.43;;
7203;SDS011;3643;52.460;13.322;2022-11-20T11:52:04;16.50;;;10.83;;
7203;SDS011;3643;52.460;13.322;2022-11-20T11:54:43;19.57;;;11.80;;
7203;SDS011;3643;52.460;13.322;2022-11-20T11:57:22;17.37;;;11.23;;
7203;SDS011;3643;52.460;13.322;2022-11-20T11:59:59;18.40;;;12.00;;
7203;SDS011;3643;52.460;13.322;2022-11-20T12:02:38;21.37;;;12.63;;
7203;SDS011;3643;52.460;13.322;2022-11-20T12:05:17;20.37;;;12.03;;
7203;SDS011;3643;52.460;13.322;2022-11-20T12:07:49;22.40;;;12.27;;
7203;SDS011;3643;52.460;13.322;2022-11-20T12:10:23;19.43;;;10.93;;
7203;SDS011;3643;52.460;13.322;2022-11-20T12:13:08;18.23;;;12.17;;
7203;SDS011;3643;52.460;13.322;2022-11-20T12:15:46;17.50;;;10.73;;
7203;SDS011;3643;52.460;13.322;2022-11-20T12:18:16;20.13;;;11.77;;
7203;SDS011;3643;52.460;13.322;2022-11-20T12:20:50;18.87;;;12.17;;
7203;SDS011;3643;52.460;13.322;2022-11-20T12:23:31;20.03;;;11.27;;
7203;SDS011;3643;52.460;13.322;2022-11-20T12:26:12;16.63;;;9.53;;
7203;SDS011;3643;52.460;13.322;2022-11-20T12:28:52;15.83;;;10.10;;
7203;SDS011;3643;52.460;13.322;2022-11-20T12:31:31;14.03;;;8.70;;
7203;SDS011;3643;52.460;13.322;2022-11-20T12:34:22;12.57;;;8.43;;
7203;SDS011;3643;52.460;13.322;2022-11-20T12:37:15;11.40;;;7.30;;
7203;SDS011;3643;52.460;13.322;2022-11-20T12:39:51;12.87;;;8.43;;
7203;SDS011;3643;52.460;13.322;2022-11-20T12:42:34;12.30;;;7.70;;
7203;SDS011;3643;52.460;13.322;2022-11-20T12:45:32;13.83;;;8.20;;
7203;SDS011;3643;52.460;13.322;2022-11-20T12:48:28;12.77;;;8.00;;
7203;SDS011;3643;52.460;13.322;2022-11-20T12:51:18;14.30;;;7.80;;
7203;SDS011;3643;52.460;13.322;2022-11-20T12:57:01;12.13;;;7.60;;
7203;SDS011;3643;52.460;13.322;2022-11-20T13:00:01;16.10;;;8.43;;
7203;SDS011;3643;52.460;13.322;2022-11-20T13:02:40;13.47;;;8.10;;
7203;SDS011;3643;52.460;13.322;2022-11-20T13:05:26;14.03;;;7.77;;
7203;SDS011;3643;52.460;13.322;2022-11-20T13:08:00;17.07;;;9.43;;
7203;SDS011;3643;52.460;13.322;2022-11-20T13:10:32;14.87;;;8.83;;
7203;SDS011;3643;52.460;13.322;2022-11-20T13:15:53;15.20;;;10.07;;
7203;SDS011;3643;52.460;13.322;2022-11-20T13:18:25;16.87;;;9.37;;
7203;SDS011;3643;52.460;13.322;2022-11-20T13:20:54;19.23;;;9.97;;
7203;SDS011;3643;52.460;13.322;2022-11-20T13:23:23;14.30;;;8.70;;
7203;SDS011;3643;52.460;13.322;2022-11-20T13:26:03;18.60;;;10.00;;
7203;SDS011;3643;52.460;13.322;2022-11-20T13:28:34;36.00;;;20.97;;
7203;SDS011;3643;52.460;13.322;2022-11-20T13:31:09;18.50;;;10.80;;
7203;SDS011;3643;52.460;13.322;2022-11-20T13:33:56;14.63;;;9.13;;
7203;SDS011;3643;52.460;13.322;2022-11-20T13:36:26;17.67;;;9.23;;
7203;SDS011;3643;52.460;13.322;2022-11-20T13:38:56;16.80;;;9.30;;
7203;SDS011;3643;52.460;13.322;2022-11-20T13:41:26;16.53;;;9.70;;
7203;SDS011;3643;52.460;13.322;2022-11-20T13:43:58;13.23;;;8.47;;
7203;SDS011;3643;52.460;13.322;2022-11-20T13:46:38;17.07;;;10.40;;
7203;SDS011;3643;52.460;13.322;2022-11-20T13:49:08;14.20;;;8.77;;
7203;SDS011;3643;52.460;13.322;2022-11-20T13:51:40;17.63;;;9.30;;
7203;SDS011;3643;52.460;13.322;2022-11-20T14:00:30;14.07;;;9.33;;
7203;SDS011;3643;52.460;13.322;2022-11-20T14:03:01;16.17;;;9.37;;
7203;SDS011;3643;52.460;13.322;2022-11-20T14:05:39;17.43;;;9.40;;
7203;SDS011;3643;52.460;13.322;2022-11-20T14:08:19;18.20;;;8.97;;
7203;SDS011;3643;52.460;13.322;2022-11-20T14:11:05;14.47;;;8.57;;
7203;SDS011;3643;52.460;13.322;2022-11-20T14:13:39;12.73;;;8.40;;
7203;SDS011;3643;52.460;13.322;2022-11-20T14:16:19;15.07;;;9.10;;
7203;SDS011;3643;52.460;13.322;2022-11-20T14:18:49;16.80;;;9.50;;
7203;SDS011;3643;52.460;13.322;2022-11-20T14:21:22;15.47;;;8.53;;
7203;SDS011;3643;52.460;13.322;2022-11-20T14:23:52;15.50;;;8.80;;
7203;SDS011;3643;52.460;13.322;2022-11-20T14:26:22;13.83;;;8.17;;
7203;SDS011;3643;52.460;13.322;2022-11-20T14:28:52;12.67;;;7.47;;
7203;SDS011;3643;52.460;13.322;2022-11-20T14:31:23;13.33;;;7.77;;
7203;SDS011;3643;52.460;13.322;2022-11-20T14:33:56;11.83;;;7.40;;
7203;SDS011;3643;52.460;13.322;2022-11-20T14:36:25;45.80;;;26.40;;
7203;SDS011;3643;52.460;13.322;2022-11-20T14:38:55;15.23;;;9.07;;
7203;SDS011;3643;52.460;13.322;2022-11-20T14:41:23;14.93;;;8.47;;
7203;SDS011;3643;52.460;13.322;2022-11-20T14:43:54;15.87;;;8.77;;
7203;SDS011;3643;52.460;13.322;2022-11-20T14:46:24;17.20;;;8.30;;
7203;SDS011;3643;52.460;13.322;2022-11-20T14:48:54;15.00;;;7.80;;
7203;SDS011;3643;52.460;13.322;2022-11-20T14:51:29;16.30;;;9.50;;
7203;SDS011;3643;52.460;13.322;2022-11-20T14:54:09;17.17;;;9.07;;
7203;SDS011;3643;52.460;13.322;2022-11-20T14:56:38;17.87;;;9.87;;
7203;SDS011;3643;52.460;13.322;2022-11-20T14:59:07;15.53;;;9.43;;
7203;SDS011;3643;52.460;13.322;2022-11-20T15:01:36;17.13;;;9.73;;
7203;SDS011;3643;52.460;13.322;2022-11-20T15:04:07;18.93;;;9.93;;
7203;SDS011;3643;52.460;13.322;2022-11-20T15:06:38;20.07;;;10.40;;
7203;SDS011;3643;52.460;13.322;2022-11-20T15:09:18;18.43;;;9.67;;
7203;SDS011;3643;52.460;13.322;2022-11-20T15:11:52;17.83;;;10.47;;
7203;SDS011;3643;52.460;13.322;2022-11-20T15:14:23;35.13;;;20.90;;
7203;SDS011;3643;52.460;13.322;2022-11-20T15:16:53;22.00;;;11.80;;
7203;SDS011;3643;52.460;13.322;2022-11-20T15:19:23;19.33;;;11.37;;
7203;SDS011;3643;52.460;13.322;2022-11-20T15:21:53;21.70;;;11.00;;
7203;SDS011;3643;52.460;13.322;2022-11-20T15:24:21;21.87;;;11.30;;
7203;SDS011;3643;52.460;13.322;2022-11-20T15:26:51;20.00;;;10.80;;
7203;SDS011;3643;52.460;13.322;2022-11-20T15:29:19;16.13;;;10.40;;
7203;SDS011;3643;52.460;13.322;2022-11-20T15:31:49;16.60;;;9.40;;
7203;SDS011;3643;52.460;13.322;2022-11-20T15:34:19;18.27;;;10.10;;
7203;SDS011;3643;52.460;13.322;2022-11-20T15:36:49;19.37;;;10.57;;
7203;SDS011;3643;52.460;13.322;2022-11-20T15:39:17;18.30;;;11.13;;
7203;SDS011;3643;52.460;13.322;2022-11-20T15:41:47;17.77;;;10.10;;
7203;SDS011;3643;52.460;13.322;2022-11-20T15:44:16;18.83;;;11.50;;
7203;SDS011;3643;52.460;13.322;2022-11-20T15:46:45;16.50;;;10.17;;
7203;SDS011;3643;52.460;13.322;2022-11-20T15:49:15;15.67;;;9.70;;
7203;SDS011;3643;52.460;13.322;2022-11-20T15:51:46;17.17;;;10.83;;
7203;SDS011;3643;52.460;13.322;2022-11-20T15:54:19;19.37;;;11.77;;
7203;SDS011;3643;52.460;13.322;2022-11-20T15:56:50;16.30;;;9.70;;
7203;SDS011;3643;52.460;13.322;2022-11-20T15:59:19;13.43;;;8.60;;
7203;SDS011;3643;52.460;13.322;2022-11-20T16:01:48;16.07;;;9.43;;
7203;SDS011;3643;52.460;13.322;2022-11-20T16:04:17;15.37;;;8.70;;
7203;SDS011;3643;52.460;13.322;2022-11-20T16:06:47;17.17;;;9.67;;
7203;SDS011;3643;52.460;13.322;2022-11-20T16:09:18;13.90;;;8.83;;
7203;SDS011;3643;52.460;13.322;2022-11-20T16:11:46;15.67;;;10.10;;
7203;SDS011;3643;52.460;13.322;2022-11-20T16:14:15;16.07;;;9.13;;
7203;SDS011;3643;52.460;13.322;2022-11-20T16:17:02;13.60;;;8.40;;
7203;SDS011;3643;52.460;13.322;2022-11-20T16:19:30;12.67;;;7.90;;
7203;SDS011;3643;52.460;13.322;2022-11-20T16:22:00;16.10;;;9.53;;
7203;SDS011;3643;52.460;13.322;2022-11-20T16:24:29;14.70;;;9.57;;
7203;SDS011;3643;52.460;13.322;2022-11-20T16:26:57;16.47;;;9.13;;
7203;SDS011;3643;52.460;13.322;2022-11-20T16:29:26;16.07;;;9.57;;
7203;SDS011;3643;52.460;13.322;2022-11-20T16:31:54;15.50;;;9.13;;
7203;SDS011;3643;52.460;13.322;2022-11-20T16:34:24;16.97;;;9.90;;
7203;SDS011;3643;52.460;13.322;2022-11-20T16:36:54;14.80;;;8.93;;
7203;SDS011;3643;52.460;13.322;2022-11-20T16:39:23;16.47;;;9.60;;
7203;SDS011;3643;52.460;13.322;2022-11-20T16:41:53;18.97;;;10.13;;
7203;SDS011;3643;52.460;13.322;2022-11-20T16:44:22;16.67;;;11.00;;
7203;SDS011;3643;52.460;13.322;2022-11-20T16:46:52;18.60;;;10.40;;
7203;SDS011;3643;52.460;13.322;2022-11-20T16:49:20;16.13;;;9.50;;
7203;SDS011;3643;52.460;13.322;2022-11-20T16:51:50;16.93;;;9.10;;
7203;SDS011;3643;52.460;13.322;2022-11-20T16:54:18;18.73;;;10.10;;
7203;SDS011;3643;52.460;13.322;2022-11-20T16:56:48;18.27;;;9.70;;
7203;SDS011;3643;52.460;13.322;2022-11-20T16:59:21;16.13;;;10.33;;
7203;SDS011;3643;52.460;13.322;2022-11-20T17:01:49;14.83;;;9.63;;
7203;SDS011;3643;52.460;13.322;2022-11-20T17:04:18;16.20;;;10.20;;
7203;SDS011;3643;52.460;13.322;2022-11-20T17:06:47;16.67;;;9.50;;
7203;SDS011;3643;52.460;13.322;2022-11-20T17:09:16;14.67;;;9.20;;
7203;SDS011;3643;52.460;13.322;2022-11-20T17:11:45;18.93;;;10.00;;
7203;SDS011;3643;52.460;13.322;2022-11-20T17:14:16;19.03;;;11.03;;
7203;SDS011;3643;52.460;13.322;2022-11-20T17:16:45;16.50;;;9.77;;
7203;SDS011;3643;52.460;13.322;2022-11-20T17:19:14;21.77;;;11.43;;
7203;SDS011;3643;52.460;13.322;2022-11-20T17:21:42;20.03;;;11.80;;
7203;SDS011;3643;52.460;13.322;2022-11-20T17:24:11;20.97;;;11.03;;
7203;SDS011;3643;52.460;13.322;2022-11-20T17:26:42;16.93;;;10.20;;
7203;SDS011;3643;52.460;13.322;2022-11-20T17:29:13;13.97;;;9.07;;
7203;SDS011;3643;52.460;13.322;2022-11-20T17:31:43;14.93;;;9.13;;
7203;SDS011;3643;52.460;13.322;2022-11-20T17:34:12;15.83;;;9.70;;
7203;SDS011;3643;52.460;13.322;2022-11-20T17:36:42;16.70;;;9.77;;
7203;SDS011;3643;52.460;13.322;2022-11-20T17:39:13;15.13;;;9.03;;
7203;SDS011;3643;52.460;13.322;2022-11-20T17:41:42;17.07;;;10.63;;
7203;SDS011;3643;52.460;13.322;2022-11-20T17:44:33;17.30;;;10.23;;
7203;SDS011;3643;52.460;13.322;2022-11-20T17:47:01;16.27;;;10.30;;
7203;SDS011;3643;52.460;13.322;2022-11-20T17:49:30;21.30;;;12.37;;
7203;SDS011;3643;52.460;13.322;2022-11-20T17:51:59;21.63;;;12.17;;
7203;SDS011;3643;52.460;13.322;2022-11-20T17:54:27;24.27;;;13.43;;
7203;SDS011;3643;52.460;13.322;2022-11-20T17:56:55;18.57;;;11.97;;
7203;SDS011;3643;52.460;13.322;2022-11-20T17:59:43;20.60;;;12.90;;
7203;SDS011;3643;52.460;13.322;2022-11-20T18:02:11;21.60;;;12.40;;
7203;SDS011;3643;52.460;13.322;2022-11-20T18:04:40;22.37;;;12.30;;
7203;SDS011;3643;52.460;13.322;2022-11-20T18:07:08;20.23;;;11.30;;
7203;SDS011;3643;52.460;13.322;2022-11-20T18:09:37;15.30;;;9.73;;
7203;SDS011;3643;52.460;13.322;2022-11-20T18:12:06;17.07;;;10.43;;
7203;SDS011;3643;52.460;13.322;2022-11-20T18:14:34;15.47;;;9.47;;
7203;SDS011;3643;52.460;13.322;2022-11-20T18:17:04;15.73;;;9.50;;
7203;SDS011;3643;52.460;13.322;2022-11-20T18:19:35;15.60;;;10.03;;
7203;SDS011;3643;52.460;13.322;2022-11-20T18:22:20;16.80;;;10.17;;
7203;SDS011;3643;52.460;13.322;2022-11-20T18:24:51;15.93;;;10.10;;
7203;SDS011;3643;52.460;13.322;2022-11-20T18:27:20;16.77;;;9.47;;
7203;SDS011;3643;52.460;13.322;2022-11-20T18:29:49;16.60;;;10.13;;
7203;SDS011;3643;52.460;13.322;2022-11-20T18:32:20;17.73;;;10.47;;
7203;SDS011;3643;52.460;13.322;2022-11-20T18:34:49;15.23;;;9.67;;
7203;SDS011;3643;52.460;13.322;2022-11-20T18:37:18;17.90;;;10.40;;
7203;SDS011;3643;52.460;13.322;2022-11-20T18:39:47;21.53;;;11.73;;
7203;SDS011;3643;52.460;13.322;2022-11-20T18:42:16;17.13;;;9.97;;
7203;SDS011;3643;52.460;13.322;2022-11-20T18:45:03;16.97;;;10.37;;
7203;SDS011;3643;52.460;13.322;2022-11-20T18:47:34;16.00;;;10.17;;
7203;SDS011;3643;52.460;13.322;2022-11-20T18:50:06;16.80;;;10.53;;
7203;SDS011;3643;52.460;13.322;2022-11-20T18:52:37;17.57;;;10.50;;
7203;SDS011;3643;52.460;13.322;2022-11-20T18:55:07;18.03;;;10.73;;
7203;SDS011;3643;52.460;13.322;2022-11-20T18:57:38;22.33;;;12.40;;
7203;SDS011;3643;52.460;13.322;2022-11-20T19:00:07;18.50;;;11.07;;
7203;SDS011;3643;52.460;13.322;2022-11-20T19:02:38;20.20;;;11.17;;
7203;SDS011;3643;52.460;13.322;2022-11-20T19:05:09;18.47;;;11.13;;
7203;SDS011;3643;52.460;13.322;2022-11-20T19:07:38;18.93;;;11.20;;
7203;SDS011;3643;52.460;13.322;2022-11-20T19:10:07;17.53;;;10.47;;
7203;SDS011;3643;52.460;13.322;2022-11-20T19:12:36;31.63;;;16.87;;
7203;SDS011;3643;52.460;13.322;2022-11-20T19:15:05;26.10;;;13.83;;
7203;SDS011;3643;52.460;13.322;2022-11-20T19:17:34;21.00;;;12.63;;
7203;SDS011;3643;52.460;13.322;2022-11-20T19:20:05;24.40;;;13.67;;
7203;SDS011;3643;52.460;13.322;2022-11-20T19:22:34;23.30;;;12.67;;
7203;SDS011;3643;52.460;13.322;2022-11-20T19:25:03;21.10;;;12.67;;
7203;SDS011;3643;52.460;13.322;2022-11-20T19:27:32;21.47;;;11.77;;
7203;SDS011;3643;52.460;13.322;2022-11-20T19:30:00;19.53;;;11.63;;
7203;SDS011;3643;52.460;13.322;2022-11-20T19:32:29;19.77;;;11.60;;
7203;SDS011;3643;52.460;13.322;2022-11-20T19:34:58;23.27;;;12.70;;
7203;SDS011;3643;52.460;13.322;2022-11-20T19:37:28;23.17;;;12.97;;
7203;SDS011;3643;52.460;13.322;2022-11-20T19:40:00;22.57;;;12.93;;
7203;SDS011;3643;52.460;13.322;2022-11-20T19:42:30;19.27;;;12.30;;
7203;SDS011;3643;52.460;13.322;2022-11-20T19:44:59;18.80;;;11.40;;
7203;SDS011;3643;52.460;13.322;2022-11-20T19:47:28;19.87;;;11.23;;
7203;SDS011;3643;52.460;13.322;2022-11-20T19:50:17;17.33;;;10.63;;
7203;SDS011;3643;52.460;13.322;2022-11-20T19:52:47;20.30;;;12.43;;
7203;SDS011;3643;52.460;13.322;2022-11-20T19:55:25;21.87;;;12.90;;
7203;SDS011;3643;52.460;13.322;2022-11-20T19:57:54;20.97;;;12.30;;
7203;SDS011;3643;52.460;13.322;2022-11-20T20:00:25;19.63;;;12.10;;
7203;SDS011;3643;52.460;13.322;2022-11-20T20:02:58;20.83;;;11.37;;
7203;SDS011;3643;52.460;13.322;2022-11-20T20:05:27;16.27;;;10.90;;
7203;SDS011;3643;52.460;13.322;2022-11-20T20:07:57;17.27;;;10.43;;
7203;SDS011;3643;52.460;13.322;2022-11-20T20:10:26;20.50;;;11.47;;
7203;SDS011;3643;52.460;13.322;2022-11-20T20:12:55;18.23;;;10.37;;
7203;SDS011;3643;52.460;13.322;2022-11-20T20:15:24;19.70;;;11.33;;